sensor_id;sensor_type;location;lat;lon;timestamp;P1;durP1;ratioP1;P2;durP2;ratioP2
73239;SDS011;61452;40.054;4.110;2023-03-01T00:02:43;28.00;;;7.38;;
73239;SDS011;61452;40.054;4.110;2023-03-01T00:07:45;42.53;;;7.72;;
73239;SDS011;61452;40.054;4.110;2023-03-01T00:12:47;38.42;;;8.10;;
73239;SDS011;61452;40.054;4.110;2023-03-01T00:17:49;30.58;;;7.22;;
73239;SDS011;61452;40.054;4.110;2023-03-01T00:22:51;30.08;;;7.75;;
73239;SDS011;61452;40.054;4.110;2023-03-01T00:27:54;30.90;;;6.53;;
73239;SDS011;61452;40.054;4.110;2023-03-01T00:32:56;24.27;;;5.93;;
73239;SDS011;61452;40.054;4.110;2023-03-01T00:37:58;42.15;;;7.85;;
73239;SDS011;61452;40.054;4.110;2023-03-01T00:43:01;27.83;;;6.93;;
73239;SDS011;61452;40.054;4.110;2023-03-01T00:48:04;24.70;;;6.40;;
73239;SDS011;61452;40.054;4.110;2023-03-01T00:53:07;37.17;;;8.48;;
73239;SDS011;61452;40.054;4.110;2023-03-01T00:58:09;31.10;;;7.22;;
73239;SDS011;61452;40.054;4.110;2023-03-01T01:03:12;39.15;;;8.07;;
73239;SDS011;61452;40.054;4.110;2023-03-01T01:08:14;33.78;;;6.30;;
73239;SDS011;61452;40.054;4.110;2023-03-01T01:13:16;28.63;;;7.05;;
73239;SDS011;61452;40.054;4.110;2023-03-01T01:18:18;27.00;;;7.18;;
73239;SDS011;61452;40.054;4.110;2023-03-01T01:23:20;28.45;;;6.55;;
73239;SDS011;61452;40.054;4.110;2023-03-01T01:28:22;35.47;;;7.55;;
73239;SDS011;61452;40.054;4.110;2023-03-01T01:33:24;36.58;;;7.68;;
73239;SDS011;61452;40.054;4.110;2023-03-01T01:38:27;36.03;;;8.30;;
73239;SDS011;61452;40.054;4.110;2023-03-01T01:43:36;28.48;;;7.13;;
73239;SDS011;61452;40.054;4.110;2023-03-01T01:48:44;35.53;;;7.50;;
73239;SDS011;61452;40.054;4.110;2023-03-01T01:53:51;35.75;;;7.18;;
73239;SDS011;61452;40.054;4.110;2023-03-01T01:58:58;35.92;;;7.90;;
73239;SDS011;61452;40.054;4.110;2023-03-01T02:04:00;33.03;;;7.60;;
73239;SDS011;61452;40.054;4.110;2023-03-01T02:09:05;29.77;;;7.22;;
73239;SDS011;61452;40.054;4.110;2023-03-01T02:14:10;29.08;;;6.55;;
73239;SDS011;61452;40.054;4.110;2023-03-01T02:19:22;22.27;;;5.40;;
73239;SDS011;61452;40.054;4.110;2023-03-01T02:24:50;28.30;;;7.07;;
73239;SDS011;61452;40.054;4.110;2023-03-01T02:30:02;33.22;;;6.43;;
73239;SDS011;61452;40.054;4.110;2023-03-01T02:35:04;37.35;;;8.45;;
73239;SDS011;61452;40.054;4.110;2023-03-01T02:40:09;34.85;;;7.43;;
73239;SDS011;61452;40.054;4.110;2023-03-01T02:45:20;27.40;;;6.75;;
73239;SDS011;61452;40.054;4.110;2023-03-01T02:50:26;30.85;;;7.32;;
73239;SDS011;61452;40.054;4.110;2023-03-01T02:55:54;31.33;;;6.25;;
73239;SDS011;61452;40.054;4.110;2023-03-01T03:00:56;38.88;;;7.00;;
73239;SDS011;61452;40.054;4.110;2023-03-01T03:06:00;37.17;;;7.85;;
73239;SDS011;61452;40.054;4.110;2023-03-01T03:11:04;37.97;;;7.18;;
73239;SDS011;61452;40.054;4.110;2023-03-01T03:16:06;24.58;;;6.30;;
73239;SDS011;61452;40.054;4.110;2023-03-01T03:21:09;29.73;;;6.72;;
73239;SDS011;61452;40.054;4.110;2023-03-01T03:26:12;28.35;;;6.75;;
73239;SDS011;61452;40.054;4.110;2023-03-01T03:31:16;34.78;;;7.88;;
73239;SDS011;61452;40.054;4.110;2023-03-01T03:36:20;23.33;;;6.30;;
73239;SDS011;61452;40.054;4.110;2023-03-01T03:41:25;34.83;;;7.65;;
73239;SDS011;61452;40.054;4.110;2023-03-01T03:46:27;34.50;;;7.38;;
73239;SDS011;61452;40.054;4.110;2023-03-01T03:51:29;26.40;;;7.20;;
73239;SDS011;61452;40.054;4.110;2023-03-01T03:56:31;28.20;;;6.90;;
73239;SDS011;61452;40.054;4.110;2023-03-01T04:01:34;25.80;;;6.43;;
73239;SDS011;61452;40.054;4.110;2023-03-01T04:06:36;26.92;;;6.47;;
73239;SDS011;61452;40.054;4.110;2023-03-01T04:11:38;25.42;;;6.55;;
73239;SDS011;61452;40.054;4.110;2023-03-01T04:16:40;36.88;;;7.47;;
73239;SDS011;61452;40.054;4.110;2023-03-01T04:21:43;30.33;;;6.75;;
73239;SDS011;61452;40.054;4.110;2023-03-01T04:26:45;23.55;;;6.30;;
73239;SDS011;61452;40.054;4.110;2023-03-01T04:31:47;26.80;;;6.03;;
73239;SDS011;61452;40.054;4.110;2023-03-01T04:36:50;31.38;;;6.32;;
73239;SDS011;61452;40.054;4.110;2023-03-01T04:41:53;27.38;;;5.95;;
73239;SDS011;61452;40.054;4.110;2023-03-01T04:46:55;29.27;;;6.22;;
73239;SDS011;61452;40.054;4.110;2023-03-01T04:51:57;24.05;;;6.25;;
73239;SDS011;61452;40.054;4.110;2023-03-01T04:57:03;23.10;;;5.47;;
73239;SDS011;61452;40.054;4.110;2023-03-01T05:02:05;20.17;;;5.25;;
73239;SDS011;61452;40.054;4.110;2023-03-01T05:07:07;27.77;;;5.65;;
73239;SDS011;61452;40.054;4.110;2023-03-01T05:12:10;26.33;;;5.38;;
73239;SDS011;61452;40.054;4.110;2023-03-01T05:17:12;23.65;;;5.97;;
73239;SDS011;61452;40.054;4.110;2023-03-01T05:22:14;23.40;;;6.15;;
73239;SDS011;61452;40.054;4.110;2023-03-01T05:27:16;22.50;;;5.55;;
73239;SDS011;61452;40.054;4.110;2023-03-01T05:32:18;26.15;;;6.20;;
73239;SDS011;61452;40.054;4.110;2023-03-01T05:37:20;31.30;;;6.32;;
73239;SDS011;61452;40.054;4.110;2023-03-01T05:42:22;23.10;;;5.45;;
73239;SDS011;61452;40.054;4.110;2023-03-01T05:47:24;21.90;;;5.57;;
73239;SDS011;61452;40.054;4.110;2023-03-01T05:52:26;33.30;;;6.65;;
73239;SDS011;61452;40.054;4.110;2023-03-01T05:57:29;20.52;;;4.70;;
73239;SDS011;61452;40.054;4.110;2023-03-01T06:02:31;21.98;;;5.25;;
73239;SDS011;61452;40.054;4.110;2023-03-01T06:07:33;24.73;;;5.57;;
73239;SDS011;61452;40.054;4.110;2023-03-01T06:12:37;24.75;;;5.13;;
73239;SDS011;61452;40.054;4.110;2023-03-01T06:17:41;25.25;;;6.05;;
73239;SDS011;61452;40.054;4.110;2023-03-01T06:27:48;19.20;;;5.47;;
73239;SDS011;61452;40.054;4.110;2023-03-01T06:32:54;33.20;;;6.20;;
73239;SDS011;61452;40.054;4.110;2023-03-01T06:38:03;18.48;;;5.03;;
73239;SDS011;61452;40.054;4.110;2023-03-01T06:43:06;24.58;;;5.28;;
73239;SDS011;61452;40.054;4.110;2023-03-01T06:48:09;25.23;;;5.53;;
73239;SDS011;61452;40.054;4.110;2023-03-01T06:53:11;23.48;;;5.57;;
73239;SDS011;61452;40.054;4.110;2023-03-01T06:58:13;27.33;;;5.85;;
73239;SDS011;61452;40.054;4.110;2023-03-01T07:03:15;36.70;;;6.43;;
73239;SDS011;61452;40.054;4.110;2023-03-01T07:08:18;23.33;;;5.93;;
73239;SDS011;61452;40.054;4.110;2023-03-01T07:13:20;28.13;;;6.30;;
73239;SDS011;61452;40.054;4.110;2023-03-01T07:18:22;26.75;;;6.15;;
73239;SDS011;61452;40.054;4.110;2023-03-01T07:23:25;31.90;;;5.90;;
73239;SDS011;61452;40.054;4.110;2023-03-01T07:28:27;33.70;;;6.97;;
73239;SDS011;61452;40.054;4.110;2023-03-01T07:33:29;23.27;;;5.80;;
73239;SDS011;61452;40.054;4.110;2023-03-01T07:38:31;24.00;;;5.60;;
73239;SDS011;61452;40.054;4.110;2023-03-01T07:43:33;32.63;;;6.53;;
73239;SDS011;61452;40.054;4.110;2023-03-01T07:48:36;26.27;;;7.30;;
73239;SDS011;61452;40.054;4.110;2023-03-01T07:53:39;35.83;;;6.97;;
73239;SDS011;61452;40.054;4.110;2023-03-01T07:58:42;34.47;;;7.28;;
73239;SDS011;61452;40.054;4.110;2023-03-01T08:03:46;31.23;;;6.30;;
73239;SDS011;61452;40.054;4.110;2023-03-01T08:08:49;28.92;;;5.70;;
73239;SDS011;61452;40.054;4.110;2023-03-01T08:13:51;25.60;;;6.95;;
73239;SDS011;61452;40.054;4.110;2023-03-01T08:18:54;24.48;;;6.70;;
73239;SDS011;61452;40.054;4.110;2023-03-01T08:23:58;22.33;;;5.93;;
73239;SDS011;61452;40.054;4.110;2023-03-01T08:29:00;21.10;;;4.68;;
73239;SDS011;61452;40.054;4.110;2023-03-01T08:34:06;31.33;;;6.15;;
73239;SDS011;61452;40.054;4.110;2023-03-01T08:39:12;25.98;;;5.72;;
73239;SDS011;61452;40.054;4.110;2023-03-01T08:44:16;37.33;;;7.15;;
73239;SDS011;61452;40.054;4.110;2023-03-01T08:49:18;30.83;;;6.18;;
73239;SDS011;61452;40.054;4.110;2023-03-01T08:54:21;27.95;;;6.22;;
73239;SDS011;61452;40.054;4.110;2023-03-01T08:59:24;24.90;;;5.78;;
73239;SDS011;61452;40.054;4.110;2023-03-01T09:04:27;26.52;;;6.53;;
73239;SDS011;61452;40.054;4.110;2023-03-01T09:09:29;22.48;;;5.85;;
73239;SDS011;61452;40.054;4.110;2023-03-01T09:14:31;24.02;;;6.07;;
73239;SDS011;61452;40.054;4.110;2023-03-01T09:19:33;25.55;;;5.90;;
73239;SDS011;61452;40.054;4.110;2023-03-01T09:24:35;28.80;;;6.38;;
73239;SDS011;61452;40.054;4.110;2023-03-01T09:29:38;27.10;;;5.97;;
73239;SDS011;61452;40.054;4.110;2023-03-01T09:34:41;32.92;;;6.28;;
73239;SDS011;61452;40.054;4.110;2023-03-01T09:40:02;23.08;;;5.68;;
73239;SDS011;61452;40.054;4.110;2023-03-01T09:45:10;24.15;;;6.65;;
73239;SDS011;61452;40.054;4.110;2023-03-01T09:50:20;19.35;;;4.93;;
73239;SDS011;61452;40.054;4.110;2023-03-01T09:55:27;25.60;;;5.72;;
73239;SDS011;61452;40.054;4.110;2023-03-01T10:00:40;18.70;;;5.28;;
73239;SDS011;61452;40.054;4.110;2023-03-01T10:11:08;22.88;;;5.97;;
73239;SDS011;61452;40.054;4.110;2023-03-01T10:16:34;23.38;;;6.00;;
73239;SDS011;61452;40.054;4.110;2023-03-01T10:21:44;22.48;;;5.45;;
73239;SDS011;61452;40.054;4.110;2023-03-01T10:26:54;22.20;;;5.82;;
73239;SDS011;61452;40.054;4.110;2023-03-01T10:31:58;21.30;;;5.72;;
73239;SDS011;61452;40.054;4.110;2023-03-01T10:37:21;24.83;;;5.80;;
73239;SDS011;61452;40.054;4.110;2023-03-01T10:42:32;19.23;;;6.03;;
73239;SDS011;61452;40.054;4.110;2023-03-01T10:47:35;20.17;;;4.60;;
73239;SDS011;61452;40.054;4.110;2023-03-01T10:52:40;31.02;;;5.57;;
73239;SDS011;61452;40.054;4.110;2023-03-01T10:57:43;22.80;;;5.40;;
73239;SDS011;61452;40.054;4.110;2023-03-01T11:03:01;24.58;;;5.45;;
73239;SDS011;61452;40.054;4.110;2023-03-01T11:08:05;21.02;;;5.40;;
73239;SDS011;61452;40.054;4.110;2023-03-01T11:13:17;24.67;;;5.32;;
73239;SDS011;61452;40.054;4.110;2023-03-01T11:18:21;21.10;;;4.80;;
73239;SDS011;61452;40.054;4.110;2023-03-01T11:23:41;22.75;;;5.90;;
73239;SDS011;61452;40.054;4.110;2023-03-01T11:28:49;25.85;;;5.25;;
73239;SDS011;61452;40.054;4.110;2023-03-01T11:39:02;19.77;;;5.28;;
73239;SDS011;61452;40.054;4.110;2023-03-01T11:44:16;26.63;;;5.53;;
73239;SDS011;61452;40.054;4.110;2023-03-01T12:26:49;21.83;;;5.07;;
73239;SDS011;61452;40.054;4.110;2023-03-01T12:37:41;21.80;;;6.90;;
73239;SDS011;61452;40.054;4.110;2023-03-01T12:53:47;21.13;;;5.53;;
73239;SDS011;61452;40.054;4.110;2023-03-01T13:14:53;28.95;;;6.53;;
73239;SDS011;61452;40.054;4.110;2023-03-01T13:19:59;27.65;;;6.32;;
73239;SDS011;61452;40.054;4.110;2023-03-01T13:25:12;24.50;;;5.30;;
73239;SDS011;61452;40.054;4.110;2023-03-01T13:30:38;31.50;;;5.35;;
73239;SDS011;61452;40.054;4.110;2023-03-01T13:35:44;24.45;;;6.40;;
73239;SDS011;61452;40.054;4.110;2023-03-01T13:45:59;29.40;;;5.18;;
73239;SDS011;61452;40.054;4.110;2023-03-01T13:51:05;22.90;;;6.88;;
73239;SDS011;61452;40.054;4.110;2023-03-01T13:56:15;22.85;;;6.28;;
73239;SDS011;61452;40.054;4.110;2023-03-01T14:01:33;30.60;;;6.53;;
73239;SDS011;61452;40.054;4.110;2023-03-01T14:06:37;26.23;;;6.07;;
73239;SDS011;61452;40.054;4.110;2023-03-01T14:22:30;23.73;;;5.65;;
73239;SDS011;61452;40.054;4.110;2023-03-01T14:27:36;30.63;;;6.53;;
73239;SDS011;61452;40.054;4.110;2023-03-01T14:32:48;29.52;;;6.22;;
73239;SDS011;61452;40.054;4.110;2023-03-01T14:37:58;25.05;;;6.40;;
73239;SDS011;61452;40.054;4.110;2023-03-01T14:43:01;25.88;;;6.00;;
73239;SDS011;61452;40.054;4.110;2023-03-01T14:48:13;26.58;;;6.28;;
73239;SDS011;61452;40.054;4.110;2023-03-01T14:53:20;22.50;;;6.15;;
73239;SDS011;61452;40.054;4.110;2023-03-01T14:58:26;23.55;;;6.00;;
73239;SDS011;61452;40.054;4.110;2023-03-01T15:03:35;30.15;;;5.78;;
73239;SDS011;61452;40.054;4.110;2023-03-01T15:13:49;25.15;;;7.65;;
73239;SDS011;61452;40.054;4.110;2023-03-01T15:18:53;27.23;;;5.55;;
73239;SDS011;61452;40.054;4.110;2023-03-01T15:24:16;22.35;;;5.40;;
73239;SDS011;61452;40.054;4.110;2023-03-01T15:29:25;27.73;;;6.05;;
73239;SDS011;61452;40.054;4.110;2023-03-01T15:34:36;20.45;;;5.28;;
73239;SDS011;61452;40.054;4.110;2023-03-01T15:39:40;18.85;;;5.70;;
73239;SDS011;61452;40.054;4.110;2023-03-01T15:44:47;25.83;;;5.70;;
73239;SDS011;61452;40.054;4.110;2023-03-01T15:49:50;19.25;;;5.47;;
73239;SDS011;61452;40.054;4.110;2023-03-01T15:54:59;26.23;;;6.43;;
73239;SDS011;61452;40.054;4.110;2023-03-01T16:00:04;22.77;;;5.70;;
73239;SDS011;61452;40.054;4.110;2023-03-01T16:05:20;18.23;;;5.07;;
73239;SDS011;61452;40.054;4.110;2023-03-01T16:10:23;18.88;;;5.53;;
73239;SDS011;61452;40.054;4.110;2023-03-01T16:15:28;21.23;;;5.15;;
73239;SDS011;61452;40.054;4.110;2023-03-01T16:20:34;25.17;;;5.50;;
73239;SDS011;61452;40.054;4.110;2023-03-01T16:25:36;18.17;;;5.47;;
73239;SDS011;61452;40.054;4.110;2023-03-01T16:30:39;24.13;;;5.25;;
73239;SDS011;61452;40.054;4.110;2023-03-01T16:35:41;20.20;;;4.95;;
73239;SDS011;61452;40.054;4.110;2023-03-01T16:40:46;25.65;;;5.35;;
73239;SDS011;61452;40.054;4.110;2023-03-01T16:45:50;20.73;;;4.90;;
73239;SDS011;61452;40.054;4.110;2023-03-01T16:50:57;21.95;;;4.65;;
73239;SDS011;61452;40.054;4.110;2023-03-01T16:56:00;24.70;;;3.63;;
73239;SDS011;61452;40.054;4.110;2023-03-01T17:01:10;23.08;;;3.63;;
73239;SDS011;61452;40.054;4.110;2023-03-01T17:06:20;18.13;;;4.60;;
73239;SDS011;61452;40.054;4.110;2023-03-01T17:11:23;18.73;;;4.22;;
73239;SDS011;61452;40.054;4.110;2023-03-01T17:16:25;17.20;;;3.95;;
73239;SDS011;61452;40.054;4.110;2023-03-01T17:21:28;16.38;;;3.90;;
73239;SDS011;61452;40.054;4.110;2023-03-01T17:26:31;11.23;;;3.58;;
73239;SDS011;61452;40.054;4.110;2023-03-01T17:31:33;15.45;;;3.90;;
73239;SDS011;61452;40.054;4.110;2023-03-01T17:36:35;19.30;;;4.68;;
73239;SDS011;61452;40.054;4.110;2023-03-01T17:41:44;18.75;;;4.65;;
73239;SDS011;61452;40.054;4.110;2023-03-01T17:46:47;9.60;;;3.42;;
73239;SDS011;61452;40.054;4.110;2023-03-01T17:51:49;14.75;;;3.42;;
73239;SDS011;61452;40.054;4.110;2023-03-01T17:56:52;16.08;;;3.30;;
73239;SDS011;61452;40.054;4.110;2023-03-01T18:01:54;12.45;;;3.13;;
73239;SDS011;61452;40.054;4.110;2023-03-01T18:06:56;14.10;;;3.08;;
73239;SDS011;61452;40.054;4.110;2023-03-01T18:11:59;11.30;;;3.22;;
73239;SDS011;61452;40.054;4.110;2023-03-01T18:17:01;18.83;;;4.13;;
73239;SDS011;61452;40.054;4.110;2023-03-01T18:22:07;11.95;;;3.38;;
73239;SDS011;61452;40.054;4.110;2023-03-01T18:27:09;15.63;;;2.85;;
73239;SDS011;61452;40.054;4.110;2023-03-01T18:32:11;12.55;;;4.03;;
73239;SDS011;61452;40.054;4.110;2023-03-01T18:37:14;17.90;;;3.30;;
73239;SDS011;61452;40.054;4.110;2023-03-01T18:42:17;10.18;;;3.53;;
73239;SDS011;61452;40.054;4.110;2023-03-01T18:47:21;14.05;;;2.95;;
73239;SDS011;61452;40.054;4.110;2023-03-01T18:52:23;11.88;;;3.53;;
73239;SDS011;61452;40.054;4.110;2023-03-01T18:57:25;13.05;;;3.42;;
73239;SDS011;61452;40.054;4.110;2023-03-01T19:02:27;15.52;;;3.25;;
73239;SDS011;61452;40.054;4.110;2023-03-01T19:07:30;10.95;;;3.50;;
73239;SDS011;61452;40.054;4.110;2023-03-01T19:12:33;17.42;;;3.35;;
73239;SDS011;61452;40.054;4.110;2023-03-01T19:17:36;11.25;;;2.85;;
73239;SDS011;61452;40.054;4.110;2023-03-01T19:22:38;14.02;;;2.70;;
73239;SDS011;61452;40.054;4.110;2023-03-01T19:27:40;10.32;;;2.38;;
73239;SDS011;61452;40.054;4.110;2023-03-01T19:32:42;11.05;;;2.97;;
73239;SDS011;61452;40.054;4.110;2023-03-01T19:37:45;10.77;;;2.60;;
73239;SDS011;61452;40.054;4.110;2023-03-01T19:42:47;8.52;;;2.65;;
73239;SDS011;61452;40.054;4.110;2023-03-01T19:47:49;12.90;;;2.88;;
73239;SDS011;61452;40.054;4.110;2023-03-01T19:52:52;15.48;;;2.90;;
73239;SDS011;61452;40.054;4.110;2023-03-01T19:57:54;11.23;;;2.50;;
73239;SDS011;61452;40.054;4.110;2023-03-01T20:02:56;10.00;;;2.53;;
73239;SDS011;61452;40.054;4.110;2023-03-01T20:07:59;12.02;;;2.83;;
73239;SDS011;61452;40.054;4.110;2023-03-01T20:13:01;7.53;;;2.47;;
73239;SDS011;61452;40.054;4.110;2023-03-01T20:18:03;11.57;;;2.47;;
73239;SDS011;61452;40.054;4.110;2023-03-01T20:23:06;9.48;;;2.65;;
73239;SDS011;61452;40.054;4.110;2023-03-01T20:28:08;8.98;;;2.45;;
73239;SDS011;61452;40.054;4.110;2023-03-01T20:33:10;10.90;;;3.33;;
73239;SDS011;61452;40.054;4.110;2023-03-01T20:38:13;12.48;;;2.67;;
73239;SDS011;61452;40.054;4.110;2023-03-01T20:43:15;9.52;;;2.47;;
73239;SDS011;61452;40.054;4.110;2023-03-01T20:48:17;9.15;;;2.10;;
73239;SDS011;61452;40.054;4.110;2023-03-01T20:53:19;8.30;;;2.13;;
73239;SDS011;61452;40.054;4.110;2023-03-01T20:58:21;8.18;;;2.33;;
73239;SDS011;61452;40.054;4.110;2023-03-01T21:03:24;8.93;;;2.70;;
73239;SDS011;61452;40.054;4.110;2023-03-01T21:08:26;4.25;;;1.85;;
73239;SDS011;61452;40.054;4.110;2023-03-01T21:13:30;9.43;;;2.40;;
73239;SDS011;61452;40.054;4.110;2023-03-01T21:18:33;8.13;;;2.50;;
73239;SDS011;61452;40.054;4.110;2023-03-01T21:23:38;9.75;;;2.17;;
73239;SDS011;61452;40.054;4.110;2023-03-01T21:28:42;7.55;;;2.03;;
73239;SDS011;61452;40.054;4.110;2023-03-01T21:33:45;6.78;;;2.08;;
73239;SDS011;61452;40.054;4.110;2023-03-01T21:38:52;5.30;;;2.00;;
73239;SDS011;61452;40.054;4.110;2023-03-01T21:43:55;5.65;;;1.75;;
73239;SDS011;61452;40.054;4.110;2023-03-01T21:48:59;8.60;;;2.25;;
73239;SDS011;61452;40.054;4.110;2023-03-01T21:54:03;6.15;;;2.00;;
73239;SDS011;61452;40.054;4.110;2023-03-01T21:59:07;6.95;;;1.80;;
73239;SDS011;61452;40.054;4.110;2023-03-01T22:04:11;5.35;;;2.03;;
73239;SDS011;61452;40.054;4.110;2023-03-01T22:09:15;6.03;;;1.75;;
73239;SDS011;61452;40.054;4.110;2023-03-01T22:14:20;7.05;;;1.80;;
73239;SDS011;61452;40.054;4.110;2023-03-01T22:19:23;6.45;;;1.88;;
73239;SDS011;61452;40.054;4.110;2023-03-01T22:24:25;5.00;;;2.00;;
73239;SDS011;61452;40.054;4.110;2023-03-01T22:29:28;5.68;;;2.00;;
73239;SDS011;61452;40.054;4.110;2023-03-01T22:34:30;5.00;;;1.77;;
73239;SDS011;61452;40.054;4.110;2023-03-01T22:39:32;5.20;;;2.13;;
73239;SDS011;61452;40.054;4.110;2023-03-01T22:44:34;4.72;;;1.95;;
73239;SDS011;61452;40.054;4.110;2023-03-01T22:49:37;5.03;;;1.70;;
73239;SDS011;61452;40.054;4.110;2023-03-01T22:54:39;3.20;;;1.25;;
73239;SDS011;61452;40.054;4.110;2023-03-01T22:59:41;5.75;;;1.77;;
73239;SDS011;61452;40.054;4.110;2023-03-01T23:04:45;3.15;;;1.55;;
73239;SDS011;61452;40.054;4.110;2023-03-01T23:09:49;5.80;;;1.67;;
73239;SDS011;61452;40.054;4.110;2023-03-01T23:14:51;5.70;;;2.05;;
73239;SDS011;61452;40.054;4.110;2023-03-01T23:19:53;3.38;;;1.63;;
73239;SDS011;61452;40.054;4.110;2023-03-01T23:24:55;4.35;;;1.60;;
73239;SDS011;61452;40.054;4.110;2023-03-01T23:29:58;7.65;;;1.77;;
73239;SDS011;61452;40.054;4.110;2023-03-01T23:35:00;3.83;;;1.70;;
73239;SDS011;61452;40.054;4.110;2023-03-01T23:40:03;7.78;;;1.88;;
73239;SDS011;61452;40.054;4.110;2023-03-01T23:45:07;6.28;;;1.50;;
73239;SDS011;61452;40.054;4.110;2023-03-01T23:50:09;3.88;;;1.88;;
73239;SDS011;61452;40.054;4.110;2023-03-01T23:55:12;3.58;;;1.90;;
